createdAt,value
2023-11-17T04:25:17.084Z,7.80
2023-11-17T04:28:19.797Z,7.80
2023-11-17T04:31:22.299Z,7.17
2023-11-17T04:34:24.859Z,7.27
2023-11-17T04:37:27.092Z,7.36
2023-11-17T04:40:29.641Z,7.31
2023-11-17T04:43:31.843Z,7.21
2023-11-17T04:46:34.329Z,7.14
2023-11-17T04:49:37.676Z,7.13
2023-11-17T04:52:40.963Z,7.13
2023-11-17T04:55:45.371Z,7.12
2023-11-17T04:58:47.900Z,7.20
2023-11-17T05:01:50.664Z,7.24
2023-11-17T05:04:53.547Z,7.32
2023-11-17T05:07:57.507Z,7.63
2023-11-17T05:11:00.875Z,7.89
2023-11-17T05:14:03.112Z,7.99
2023-11-17T05:17:10.768Z,8.09
2023-11-17T05:20:14.540Z,8.14
2023-11-17T05:23:17.685Z,8.25
2023-11-17T05:26:20.911Z,8.10
2023-11-17T05:29:23.567Z,7.85
2023-11-17T05:32:27.319Z,7.92
2023-11-17T05:35:30.185Z,8.24
2023-11-17T05:38:33.118Z,8.00
2023-11-17T05:41:36.297Z,7.90
2023-11-17T05:44:38.948Z,8.12
2023-11-17T05:47:43.380Z,8.30
2023-11-17T05:50:45.741Z,8.52
2023-11-17T05:53:51.403Z,8.65
2023-11-17T05:56:55.017Z,8.61
2023-11-17T05:59:58.519Z,8.75
2023-11-17T06:03:01.076Z,8.85
2023-11-17T06:06:04.033Z,8.89
2023-11-17T06:09:13.654Z,8.99
2023-11-17T06:12:17.520Z,8.99
2023-11-17T06:15:27.973Z,9.02
2023-11-17T06:18:30.481Z,9.06
2023-11-17T06:21:33.481Z,9.06
2023-11-17T06:24:36.308Z,9.07
2023-11-17T06:27:40.044Z,9.15
2023-11-17T06:30:43.924Z,9.19
2023-11-17T06:33:46.459Z,9.25
2023-11-17T06:36:52.001Z,9.30
2023-11-17T06:39:56.018Z,9.43
2023-11-17T06:43:01.422Z,9.51
2023-11-17T06:46:08.896Z,9.47
2023-11-17T06:49:13.796Z,9.60
2023-11-17T06:52:16.716Z,9.62
2023-11-17T06:55:20.617Z,9.45
2023-11-17T06:58:23.556Z,9.47
2023-11-17T07:01:26.705Z,9.57
2023-11-17T07:04:31.688Z,9.36
2023-11-17T07:07:36.332Z,9.24
2023-11-17T07:10:39.216Z,9.02
2023-11-17T07:13:41.840Z,8.94
2023-11-17T07:16:46.337Z,9.29
2023-11-17T07:19:49.857Z,9.49
2023-11-17T07:22:52.279Z,9.50
2023-11-17T07:25:56.406Z,9.30
2023-11-17T07:28:58.692Z,9.47
2023-11-17T07:32:01.414Z,9.14
2023-11-17T07:35:04.018Z,8.97
2023-11-17T07:38:08.715Z,8.99
2023-11-17T07:41:13.948Z,9.15
2023-11-17T07:44:17.210Z,9.62
2023-11-17T07:47:24.476Z,9.62
2023-11-17T07:50:27.725Z,9.81
2023-11-17T07:53:30.237Z,10.02
2023-11-17T07:56:32.819Z,10.33
2023-11-17T07:59:35.157Z,10.51
2023-11-17T08:02:37.744Z,10.74
2023-11-17T08:05:40.260Z,10.71
2023-11-17T08:08:42.603Z,10.53
2023-11-17T08:11:45.595Z,10.47
2023-11-17T08:14:49.035Z,10.58
2023-11-17T08:17:51.764Z,10.37
2023-11-17T08:20:54.308Z,10.65
2023-11-17T08:23:56.911Z,10.95
2023-11-17T08:27:00.264Z,10.55
2023-11-17T08:30:08.257Z,10.92
2023-11-17T08:33:10.501Z,10.84
2023-11-17T08:36:13.005Z,10.74
2023-11-17T08:39:26.803Z,10.96
2023-11-17T08:42:30.268Z,11.71
2023-11-17T08:45:32.510Z,11.81
2023-11-17T08:48:40.608Z,11.30
2023-11-17T08:51:43.969Z,10.90
2023-11-17T08:54:47.802Z,11.31
2023-11-17T08:57:50.171Z,10.86
2023-11-17T09:00:55.845Z,10.78
2023-11-17T09:03:58.472Z,10.50
2023-11-17T09:07:01.054Z,10.67
2023-11-17T09:10:03.451Z,10.75
2023-11-17T09:13:06.072Z,10.95
2023-11-17T09:16:09.293Z,10.98
2023-11-17T09:19:12.550Z,11.00
2023-11-17T09:22:15.661Z,11.09
2023-11-17T09:25:19.852Z,10.84
2023-11-17T09:28:22.153Z,10.74
2023-11-17T09:31:24.983Z,10.59
2023-11-17T09:34:27.313Z,10.32
2023-11-17T09:37:30.157Z,10.23
2023-11-17T09:40:38.052Z,10.16
2023-11-17T09:43:44.646Z,10.82
2023-11-17T09:47:09.107Z,10.63
2023-11-17T09:50:12.199Z,10.38
2023-11-17T09:53:16.041Z,10.59
2023-11-17T09:56:19.393Z,10.70
2023-11-17T09:59:23.506Z,10.45
2023-11-17T10:02:29.185Z,10.03
2023-11-17T10:05:33.658Z,10.25
2023-11-17T10:08:39.977Z,9.99
2023-11-17T10:11:49.970Z,9.74
2023-11-17T10:14:53.831Z,9.50
2023-11-17T10:18:13.885Z,9.76
2023-11-17T10:21:17.122Z,9.55
2023-11-17T10:24:20.127Z,9.65
2023-11-17T10:27:23.088Z,9.56
2023-11-17T10:30:27.352Z,9.68
2023-11-17T10:33:31.294Z,9.82
2023-11-17T10:37:05.633Z,9.68
2023-11-17T10:40:13.341Z,9.81
2023-11-17T10:43:16.977Z,9.64
2023-11-17T10:46:23.664Z,9.75
2023-11-17T10:49:28.233Z,9.52
2023-11-17T10:52:32.048Z,9.41
2023-11-17T10:55:35.589Z,9.40
2023-11-17T10:58:38.006Z,9.65
2023-11-17T11:01:42.011Z,9.94
2023-11-17T11:04:47.184Z,9.80
2023-11-17T11:07:49.939Z,9.29
2023-11-17T11:10:58.863Z,9.23
2023-11-17T11:14:02.879Z,9.11
2023-11-17T11:17:06.322Z,8.95
2023-11-17T11:20:21.756Z,8.90
2023-11-17T11:23:27.952Z,9.08
2023-11-17T11:26:32.965Z,9.37
2023-11-17T11:29:40.698Z,9.90
2023-11-17T11:32:48.109Z,10.04
2023-11-17T11:35:53.058Z,9.98
2023-11-17T11:38:57.270Z,10.23
2023-11-17T11:42:01.664Z,10.51
2023-11-17T11:45:05.928Z,10.62
2023-11-17T11:48:09.764Z,10.44
2023-11-17T11:51:15.739Z,10.18
2023-11-17T11:54:19.038Z,9.98
2023-11-17T11:57:30.318Z,9.92
2023-11-17T12:00:35.133Z,9.71
2023-11-17T12:03:38.000Z,9.83
2023-11-17T12:06:50.193Z,9.89
2023-11-17T12:09:59.645Z,9.66
2023-11-17T12:13:02.217Z,9.85
2023-11-17T12:16:10.324Z,9.92
2023-11-17T12:19:14.701Z,9.94
2023-11-17T12:22:17.529Z,9.64
2023-11-17T12:25:20.094Z,9.52
2023-11-17T12:28:23.714Z,9.13
2023-11-17T12:31:26.147Z,8.82
2023-11-17T12:34:28.850Z,8.65
2023-11-17T12:37:31.687Z,8.55
2023-11-17T12:40:34.423Z,8.49
2023-11-17T12:43:39.226Z,8.34
2023-11-17T12:46:42.488Z,8.37
2023-11-17T12:49:55.442Z,8.34
2023-11-17T12:56:04.643Z,8.04
2023-11-17T12:59:07.080Z,8.07
2023-11-17T13:02:11.104Z,7.95
2023-11-17T13:05:14.584Z,7.94
2023-11-17T13:08:17.023Z,7.89
2023-11-17T13:11:24.169Z,7.78
2023-11-17T13:14:27.919Z,7.83
2023-11-17T13:17:31.654Z,7.81
2023-11-17T13:20:34.546Z,7.79
2023-11-17T13:23:38.283Z,7.70
2023-11-17T13:26:42.876Z,7.64
2023-11-17T13:29:46.278Z,7.54
2023-11-17T13:32:58.174Z,7.51
2023-11-17T13:36:03.551Z,7.53
2023-11-17T13:39:19.501Z,7.60
2023-11-17T13:42:22.071Z,7.54
2023-11-17T13:45:25.976Z,7.52
2023-11-17T13:48:33.257Z,7.62
2023-11-17T13:51:45.032Z,7.59
2023-11-17T13:54:49.963Z,7.62
2023-11-17T13:57:55.591Z,7.58
2023-11-17T14:01:02.304Z,7.56
2023-11-17T14:04:07.527Z,7.56
2023-11-17T14:07:13.070Z,7.52
2023-11-17T14:10:19.356Z,7.52
2023-11-17T14:13:22.063Z,7.42
2023-11-17T14:16:24.840Z,7.34
2023-11-17T14:19:28.660Z,7.39
2023-11-17T14:22:31.525Z,7.30
2023-11-17T14:25:34.097Z,7.33
2023-11-17T14:28:40.143Z,7.30
2023-11-17T14:31:44.922Z,7.34
2023-11-17T14:34:49.128Z,7.31
2023-11-17T14:37:54.588Z,7.29
2023-11-17T14:40:57.800Z,7.28
2023-11-17T14:44:04.560Z,7.28
2023-11-17T14:47:07.202Z,7.29
2023-11-17T14:50:15.019Z,7.22
2023-11-17T14:53:17.682Z,7.30
2023-11-17T14:56:20.192Z,7.25
2023-11-17T14:59:24.436Z,7.20
2023-11-17T15:02:26.961Z,7.25
2023-11-17T15:05:29.434Z,7.12
2023-11-17T15:08:32.029Z,7.14
2023-11-17T15:11:34.755Z,7.13
2023-11-17T15:14:37.626Z,7.10
2023-11-17T15:17:40.272Z,6.92
2023-11-17T15:20:43.330Z,6.86
2023-11-17T15:23:45.880Z,6.87
2023-11-17T15:26:55.666Z,6.77
2023-11-17T15:29:58.267Z,6.62
2023-11-17T15:33:00.916Z,6.61
2023-11-17T15:36:07.137Z,6.62
2023-11-17T15:39:18.343Z,6.59
2023-11-17T15:42:21.124Z,6.51
2023-11-17T15:45:24.541Z,6.44
2023-11-17T15:48:27.941Z,6.47
2023-11-17T15:51:33.059Z,6.41
2023-11-17T15:54:35.570Z,6.47
2023-11-17T15:57:37.769Z,6.46
2023-11-17T16:00:40.229Z,6.44
2023-11-17T16:03:43.050Z,6.48
2023-11-17T16:06:47.738Z,6.52
2023-11-17T16:09:52.184Z,6.46
2023-11-17T16:12:57.813Z,6.44
2023-11-17T16:16:00.718Z,6.47
2023-11-17T16:19:03.955Z,6.54
2023-11-17T16:22:06.528Z,6.47
2023-11-17T16:25:11.875Z,6.50
2023-11-17T16:28:14.607Z,6.48
2023-11-17T16:31:17.445Z,6.40
